createdAt,value
2023-02-11T00:01:13.612Z,5.00
2023-02-11T00:03:40.518Z,4.90
2023-02-11T00:06:11.514Z,4.90
2023-02-11T00:08:39.310Z,4.80
2023-02-11T00:11:06.652Z,4.80
2023-02-11T00:13:33.880Z,4.80
2023-02-11T00:16:00.746Z,4.80
2023-02-11T00:18:28.076Z,4.70
2023-02-11T00:20:54.919Z,4.60
2023-02-11T00:23:21.700Z,4.60
2023-02-11T00:25:48.671Z,4.50
2023-02-11T00:28:15.714Z,4.50
2023-02-11T00:30:42.657Z,4.50
2023-02-11T00:33:09.685Z,4.50
2023-02-11T00:35:39.511Z,4.50
2023-02-11T00:38:06.304Z,4.50
2023-02-11T00:40:33.222Z,4.40
2023-02-11T00:43:00.101Z,4.40
2023-02-11T00:45:26.945Z,4.30
2023-02-11T00:47:53.733Z,4.20
2023-02-11T00:50:20.562Z,4.30
2023-02-11T00:52:47.452Z,4.20
2023-02-11T00:55:14.770Z,4.30
2023-02-11T00:57:41.599Z,4.20
2023-02-11T01:00:15.390Z,4.10
2023-02-11T01:02:42.219Z,4.10
2023-02-11T01:05:12.221Z,4.10
2023-02-11T01:07:39.039Z,4.00
2023-02-11T01:10:06.256Z,3.90
2023-02-11T01:12:36.161Z,3.90
2023-02-11T01:15:04.056Z,3.80
2023-02-11T01:17:30.926Z,3.80
2023-02-11T01:19:57.783Z,3.70
2023-02-11T01:22:24.689Z,3.70
2023-02-11T01:24:51.543Z,3.70
2023-02-11T01:27:18.500Z,3.60
2023-02-11T01:29:45.361Z,3.60
2023-02-11T01:32:12.193Z,3.50
2023-02-11T01:34:39.066Z,3.50
2023-02-11T01:37:05.952Z,3.50
2023-02-11T01:39:36.203Z,3.40
2023-02-11T01:42:03.555Z,3.40
2023-02-11T01:44:33.523Z,3.40
2023-02-11T01:47:01.130Z,3.30
2023-02-11T01:49:36.317Z,3.30
2023-02-11T01:52:12.429Z,3.30
2023-02-11T01:55:04.874Z,3.30
2023-02-11T01:57:35.354Z,3.20
2023-02-11T02:00:17.479Z,3.10
2023-02-11T02:03:19.484Z,3.10
2023-02-11T02:06:00.696Z,3.00
2023-02-11T02:08:41.903Z,3.10
2023-02-11T02:11:08.972Z,3.10
2023-02-11T02:13:36.203Z,3.00
2023-02-11T02:16:11.886Z,3.00
2023-02-11T02:18:44.763Z,3.10
2023-02-11T02:21:11.429Z,3.20
2023-02-11T02:24:09.277Z,3.10
2023-02-11T02:26:51.232Z,3.10
2023-02-11T02:29:47.676Z,3.00
2023-02-11T02:32:38.639Z,3.00
2023-02-11T02:35:23.600Z,2.90
2023-02-11T02:38:12.530Z,2.90
2023-02-11T02:41:07.614Z,2.90
2023-02-11T02:43:37.556Z,2.90
2023-02-11T02:46:23.872Z,2.80
2023-02-11T02:48:52.803Z,2.80
2023-02-11T02:51:49.017Z,2.80
2023-02-11T02:54:52.769Z,2.80
2023-02-11T02:57:50.059Z,2.80
2023-02-11T03:00:37.607Z,2.80
2023-02-11T03:03:04.350Z,2.70
2023-02-11T03:05:37.350Z,2.70
2023-02-11T03:08:15.064Z,2.60
2023-02-11T03:10:50.194Z,2.50
2023-02-11T03:13:21.001Z,2.50
2023-02-11T03:15:53.211Z,2.40
2023-02-11T03:18:26.088Z,2.40
2023-02-11T03:20:54.779Z,2.40
2023-02-11T03:23:39.698Z,2.40
2023-02-11T03:26:12.792Z,2.30
2023-02-11T03:28:51.460Z,2.20
2023-02-11T03:31:40.487Z,2.20
2023-02-11T03:34:16.855Z,2.20
2023-02-11T03:36:53.918Z,2.10
2023-02-11T03:39:25.585Z,2.00
2023-02-11T03:41:55.439Z,2.00
2023-02-11T03:44:26.646Z,2.00
2023-02-11T03:46:55.453Z,1.90
2023-02-11T03:49:25.330Z,2.00
2023-02-11T03:51:53.561Z,2.00
2023-02-11T03:54:27.130Z,2.00
2023-02-11T03:56:57.447Z,2.20
2023-02-11T03:59:24.446Z,2.10
2023-02-11T04:01:51.944Z,2.10
2023-02-11T04:04:18.802Z,2.00
2023-02-11T04:06:45.886Z,2.10
2023-02-11T04:09:12.833Z,2.00
2023-02-11T04:11:39.667Z,2.00
2023-02-11T04:14:06.472Z,1.90
2023-02-11T04:16:33.353Z,1.90
2023-02-11T04:19:01.576Z,2.00
2023-02-11T04:21:28.344Z,1.90
2023-02-11T04:23:55.139Z,1.90
2023-02-11T04:26:22.047Z,1.90
2023-02-11T04:28:48.823Z,1.90
2023-02-11T04:31:15.859Z,1.90
2023-02-11T04:33:42.816Z,1.90
2023-02-11T04:36:09.604Z,1.90
2023-02-11T04:38:36.500Z,1.90
2023-02-11T04:41:03.549Z,1.90
2023-02-11T04:43:30.343Z,1.90
2023-02-11T04:45:58.718Z,1.90
2023-02-11T04:48:26.247Z,1.80
2023-02-11T04:50:53.038Z,1.80
2023-02-11T04:53:19.901Z,1.80
2023-02-11T04:55:51.048Z,1.80
2023-02-11T04:58:19.835Z,1.80
2023-02-11T05:00:47.237Z,1.90
2023-02-11T05:03:14.524Z,2.00
2023-02-11T05:05:42.723Z,2.00
2023-02-11T05:08:10.954Z,2.00
2023-02-11T05:10:37.991Z,2.00
2023-02-11T05:13:05.439Z,2.10
2023-02-11T05:15:32.320Z,2.10
2023-02-11T05:17:59.268Z,2.10
2023-02-11T05:20:26.093Z,2.10
2023-02-11T05:22:52.876Z,2.10
2023-02-11T05:25:20.780Z,2.10
2023-02-11T05:27:47.519Z,2.10
2023-02-11T05:30:14.571Z,2.10
2023-02-11T05:32:41.440Z,2.10
2023-02-11T05:35:09.481Z,2.20
2023-02-11T05:37:36.670Z,2.20
2023-02-11T05:40:04.311Z,2.30
2023-02-11T05:42:31.209Z,2.30
2023-02-11T05:44:58.089Z,2.30
2023-02-11T05:47:24.981Z,2.40
2023-02-11T05:49:52.024Z,2.40
2023-02-11T05:52:18.854Z,2.40
2023-02-11T05:54:45.630Z,2.50
2023-02-11T05:57:12.419Z,2.50
2023-02-11T05:59:39.285Z,2.50
2023-02-11T06:02:07.914Z,2.60
2023-02-11T06:04:35.338Z,2.60
2023-02-11T06:07:02.470Z,2.60
2023-02-11T06:09:29.368Z,2.60
2023-02-11T06:11:56.175Z,2.70
2023-02-11T06:14:22.992Z,2.70
2023-02-11T06:16:49.904Z,2.70
2023-02-11T06:19:16.845Z,2.80
2023-02-11T06:21:44.635Z,2.80
2023-02-11T06:24:12.421Z,2.80
2023-02-11T06:26:39.194Z,2.90
2023-02-11T06:29:06.177Z,2.90
2023-02-11T06:31:33.156Z,2.90
2023-02-11T06:34:00.696Z,3.00
2023-02-11T06:36:27.549Z,3.00
2023-02-11T06:38:54.452Z,3.00
2023-02-11T06:41:21.378Z,3.00
2023-02-11T06:43:49.013Z,3.10
2023-02-11T06:46:16.384Z,3.00
2023-02-11T06:48:44.977Z,3.10
2023-02-11T06:51:13.906Z,3.10
2023-02-11T06:53:43.724Z,3.20
2023-02-11T06:56:14.355Z,3.20
2023-02-11T06:58:41.643Z,3.20
2023-02-11T07:01:11.575Z,3.20
2023-02-11T07:03:41.197Z,3.20
2023-02-11T07:06:08.905Z,3.30
2023-02-11T07:08:37.177Z,3.30
2023-02-11T07:11:13.884Z,3.30
2023-02-11T07:13:40.942Z,3.40
2023-02-11T07:16:09.678Z,3.40
2023-02-11T07:18:36.767Z,3.40
2023-02-11T07:21:14.329Z,3.50
2023-02-11T07:23:42.316Z,3.60
2023-02-11T07:26:11.828Z,3.60
2023-02-11T07:28:40.358Z,3.70
2023-02-11T07:31:27.816Z,3.70
2023-02-11T07:33:57.564Z,3.70
2023-02-11T07:36:24.770Z,3.70
2023-02-11T07:38:52.000Z,3.80
2023-02-11T07:41:21.762Z,3.80
2023-02-11T07:43:48.561Z,3.80
2023-02-11T07:46:17.117Z,3.90
2023-02-11T07:48:44.192Z,3.90
2023-02-11T07:51:14.668Z,3.90
2023-02-11T07:53:41.760Z,4.00
2023-02-11T07:56:10.348Z,4.00
2023-02-11T07:58:37.959Z,4.10
2023-02-11T08:01:07.252Z,4.10
2023-02-11T08:03:34.952Z,4.10
2023-02-11T08:06:13.831Z,4.10
2023-02-11T08:08:41.117Z,4.20
2023-02-11T08:11:33.596Z,4.20
2023-02-11T08:14:00.393Z,4.30
2023-02-11T08:16:31.644Z,4.20
2023-02-11T08:19:01.852Z,4.20
2023-02-11T08:21:29.077Z,4.20
2023-02-11T08:23:56.772Z,4.20
2023-02-11T08:26:26.138Z,4.20
2023-02-11T08:28:54.728Z,4.30
2023-02-11T08:31:24.647Z,4.50
2023-02-11T08:33:51.652Z,4.50
2023-02-11T08:36:24.564Z,4.40
2023-02-11T08:38:51.498Z,4.50
2023-02-11T08:41:18.542Z,4.50
2023-02-11T08:43:46.134Z,4.60
2023-02-11T08:46:15.697Z,4.60
2023-02-11T08:48:43.634Z,4.70
2023-02-11T08:51:15.132Z,4.90
2023-02-11T08:53:41.943Z,5.10
2023-02-11T08:56:13.256Z,5.10
2023-02-11T08:58:40.663Z,5.10
2023-02-11T09:01:23.100Z,5.20
2023-02-11T09:03:50.300Z,5.30
2023-02-11T09:06:18.679Z,5.30
2023-02-11T09:08:49.199Z,5.30
2023-02-11T09:11:17.848Z,5.50
2023-02-11T09:13:45.189Z,5.50
2023-02-11T09:16:23.274Z,5.60
2023-02-11T09:18:50.679Z,5.60
2023-02-11T09:21:18.921Z,5.70
2023-02-11T09:23:47.936Z,5.70
2023-02-11T09:26:18.232Z,5.70
2023-02-11T09:28:45.188Z,5.60
2023-02-11T09:31:15.452Z,5.50
2023-02-11T09:33:47.804Z,5.50
2023-02-11T09:36:26.919Z,5.60
2023-02-11T09:38:54.612Z,5.50
2023-02-11T09:41:24.111Z,5.50
2023-02-11T09:43:55.221Z,5.50
2023-02-11T09:46:24.619Z,5.40
2023-02-11T09:48:55.067Z,5.40
2023-02-11T09:51:49.260Z,5.40
2023-02-11T09:54:35.598Z,5.40
2023-02-11T09:57:02.400Z,5.50
2023-02-11T09:59:29.184Z,5.50
2023-02-11T10:02:39.950Z,5.60
2023-02-11T10:05:29.580Z,5.60
2023-02-11T10:08:13.652Z,5.60
2023-02-11T10:11:00.014Z,5.80
2023-02-11T10:13:42.701Z,5.70
2023-02-11T10:16:25.296Z,5.70
2023-02-11T10:19:05.299Z,5.90
2023-02-11T10:21:58.806Z,5.80
2023-02-11T10:24:28.336Z,5.90
2023-02-11T10:26:55.565Z,6.00
2023-02-11T10:29:44.334Z,6.20
2023-02-11T10:32:31.246Z,6.20
2023-02-11T10:35:02.963Z,6.30
2023-02-11T10:37:30.790Z,6.30
2023-02-11T10:39:57.635Z,6.20
2023-02-11T10:42:25.660Z,6.30
2023-02-11T10:45:03.123Z,6.10
2023-02-11T10:47:37.102Z,6.00
2023-02-11T10:50:26.213Z,6.10
2023-02-11T10:52:53.176Z,6.20
2023-02-11T10:55:23.160Z,6.20
2023-02-11T10:58:01.102Z,6.20
2023-02-11T11:00:36.706Z,6.20
2023-02-11T11:03:07.203Z,6.20
2023-02-11T11:05:46.621Z,6.30
2023-02-11T11:08:13.554Z,6.30
2023-02-11T11:10:49.800Z,6.10
2023-02-11T11:13:39.462Z,6.40
2023-02-11T11:16:12.323Z,6.50
2023-02-11T11:18:40.061Z,6.50
2023-02-11T11:21:13.588Z,6.50
2023-02-11T11:23:46.737Z,6.40
2023-02-11T11:26:15.683Z,6.50
2023-02-11T11:28:53.478Z,6.50
2023-02-11T11:31:33.687Z,6.50
2023-02-11T11:34:20.812Z,6.40
2023-02-11T11:36:48.258Z,6.40
2023-02-11T11:39:30.873Z,6.30
2023-02-11T11:42:00.568Z,6.30
2023-02-11T11:44:33.900Z,6.20
2023-02-11T11:47:15.684Z,6.30
2023-02-11T11:49:45.886Z,6.20
2023-02-11T11:52:34.627Z,6.50
2023-02-11T11:55:20.365Z,6.50
2023-02-11T11:57:47.948Z,6.40
2023-02-11T12:00:27.913Z,6.50
2023-02-11T12:03:00.937Z,6.60
2023-02-11T12:05:43.776Z,6.80
2023-02-11T12:08:42.443Z,6.80
2023-02-11T12:11:14.485Z,6.90
2023-02-11T12:14:03.733Z,7.10
2023-02-11T12:16:41.907Z,7.10
2023-02-11T12:19:16.362Z,7.30
2023-02-11T12:21:56.253Z,7.30
2023-02-11T12:25:04.661Z,7.30
2023-02-11T12:27:52.590Z,7.30
2023-02-11T12:30:38.009Z,7.40
2023-02-11T12:33:49.502Z,7.40
2023-02-11T12:36:27.927Z,7.40
2023-02-11T12:39:00.579Z,7.50
2023-02-11T12:41:52.100Z,7.50
2023-02-11T12:44:44.843Z,7.60
2023-02-11T12:47:22.935Z,7.90
2023-02-11T12:50:02.746Z,7.90
2023-02-11T12:53:02.264Z,8.00
2023-02-11T12:55:37.229Z,8.00
2023-02-11T12:58:06.519Z,7.90
2023-02-11T13:00:47.637Z,7.90
2023-02-11T13:03:39.200Z,7.90
2023-02-11T13:06:12.048Z,7.90
2023-02-11T13:08:46.122Z,7.60
2023-02-11T13:11:20.431Z,7.60
2023-02-11T13:13:51.509Z,7.70
2023-02-11T13:16:36.490Z,7.80
2023-02-11T13:19:14.117Z,7.80
2023-02-11T13:21:49.931Z,7.80
2023-02-11T13:24:26.805Z,7.80
2023-02-11T13:26:57.578Z,7.70
2023-02-11T13:29:30.404Z,7.70
2023-02-11T13:32:10.547Z,7.80
2023-02-11T13:34:43.490Z,7.80
2023-02-11T13:37:23.995Z,7.80
2023-02-11T13:40:19.825Z,7.70
2023-02-11T13:42:52.387Z,7.80
2023-02-11T13:45:31.023Z,7.90
2023-02-11T13:48:04.832Z,7.60
2023-02-11T13:50:39.809Z,7.60
2023-02-11T13:53:08.830Z,7.50
2023-02-11T13:55:35.973Z,7.50
2023-02-11T14:01:05.996Z,7.50
2023-02-11T14:03:54.017Z,7.50
2023-02-11T14:06:46.030Z,7.50
2023-02-11T14:09:12.791Z,7.50
2023-02-11T14:11:45.435Z,7.50
2023-02-11T14:14:35.012Z,7.60
2023-02-11T14:17:08.054Z,7.50
2023-02-11T14:19:43.851Z,7.60
2023-02-11T14:22:11.871Z,7.60
2023-02-11T14:24:38.631Z,7.70
2023-02-11T14:27:14.610Z,7.80
2023-02-11T14:30:02.658Z,7.80
2023-02-11T14:33:15.418Z,7.70
2023-02-11T14:36:05.765Z,7.80
2023-02-11T14:39:00.159Z,7.80
2023-02-11T14:41:30.553Z,7.80
2023-02-11T14:44:04.417Z,7.70
2023-02-11T14:46:33.033Z,7.90
2023-02-11T14:49:05.911Z,7.80
2023-02-11T14:51:38.550Z,7.80
2023-02-11T14:54:15.266Z,7.70
2023-02-11T14:56:42.951Z,7.80
2023-02-11T14:59:22.119Z,7.80
2023-02-11T15:01:56.768Z,7.90
2023-02-11T15:04:30.629Z,8.00
2023-02-11T15:07:02.171Z,7.80
2023-02-11T15:09:29.413Z,7.80
2023-02-11T15:11:57.788Z,7.70
2023-02-11T15:14:26.614Z,7.80
2023-02-11T15:16:56.254Z,8.00
2023-02-11T15:19:41.156Z,7.90
2023-02-11T15:22:18.793Z,7.80
2023-02-11T15:24:46.121Z,7.80
2023-02-11T15:27:15.527Z,7.90
2023-02-11T15:29:49.552Z,8.00
2023-02-11T15:32:19.298Z,8.10
2023-02-11T15:34:47.726Z,7.90
2023-02-11T15:37:21.769Z,8.00
2023-02-11T15:39:49.553Z,7.90
2023-02-11T15:42:35.845Z,7.90
2023-02-11T15:45:14.506Z,7.90
2023-02-11T15:47:48.826Z,7.90
2023-02-11T15:50:30.285Z,7.90
2023-02-11T15:53:03.618Z,7.90
2023-02-11T15:55:30.950Z,7.80
2023-02-11T15:58:02.327Z,7.80
2023-02-11T16:00:39.692Z,7.90
2023-02-11T16:03:06.568Z,8.00
2023-02-11T16:05:36.697Z,8.00
2023-02-11T16:08:21.803Z,7.90
2023-02-11T16:10:58.553Z,7.90
2023-02-11T16:13:28.273Z,7.80
2023-02-11T16:16:03.925Z,7.90
2023-02-11T16:18:52.088Z,7.80
2023-02-11T16:21:35.193Z,7.80
2023-02-11T16:24:03.433Z,7.70
2023-02-11T16:26:43.519Z,7.70
2023-02-11T16:29:17.470Z,7.80
2023-02-11T16:31:47.454Z,7.80
2023-02-11T16:34:18.559Z,7.80
2023-02-11T16:36:46.417Z,7.70
2023-02-11T16:39:13.364Z,7.70
2023-02-11T16:41:40.729Z,7.70
2023-02-11T16:44:07.598Z,7.80
2023-02-11T16:46:34.763Z,7.80
2023-02-11T16:49:10.604Z,7.70
2023-02-11T16:51:41.813Z,7.70
2023-02-11T16:54:15.289Z,7.70
2023-02-11T16:56:42.870Z,7.70
2023-02-11T16:59:10.034Z,7.70
2023-02-11T17:01:39.152Z,7.70
2023-02-11T17:04:07.364Z,7.80
2023-02-11T17:06:35.276Z,7.90
2023-02-11T17:09:02.337Z,8.00
2023-02-11T17:11:29.135Z,7.90
2023-02-11T17:13:55.875Z,7.70
2023-02-11T17:16:25.060Z,7.60
2023-02-11T17:18:51.931Z,7.50
2023-02-11T17:21:19.138Z,7.40
2023-02-11T17:23:46.146Z,7.50
2023-02-11T17:26:13.068Z,7.40
2023-02-11T17:28:39.844Z,7.40
2023-02-11T17:31:09.968Z,7.40
2023-02-11T17:33:37.852Z,7.40
2023-02-11T17:36:09.410Z,7.30
2023-02-11T17:38:37.620Z,7.30
2023-02-11T17:41:05.166Z,7.40
2023-02-11T17:43:32.462Z,7.40
2023-02-11T17:45:59.391Z,7.40
2023-02-11T17:48:26.322Z,7.30
2023-02-11T17:50:53.163Z,7.30
2023-02-11T17:53:20.012Z,7.30
2023-02-11T17:55:46.838Z,7.40
2023-02-11T17:58:14.598Z,7.40
2023-02-11T18:00:41.648Z,7.40
2023-02-11T18:03:08.566Z,7.50
2023-02-11T18:05:36.782Z,7.40
2023-02-11T18:08:06.371Z,7.50
2023-02-11T18:10:33.933Z,7.50
2023-02-11T18:13:01.622Z,7.50
2023-02-11T18:15:28.520Z,7.40
2023-02-11T18:17:55.835Z,7.40
2023-02-11T18:20:22.851Z,7.40
2023-02-11T18:22:50.152Z,7.40
2023-02-11T18:25:17.607Z,7.30
2023-02-11T18:27:44.724Z,7.40
2023-02-11T18:30:16.051Z,7.30
2023-02-11T18:32:43.172Z,7.30
2023-02-11T18:35:15.075Z,7.30
2023-02-11T18:37:42.981Z,7.40
2023-02-11T18:40:11.139Z,7.40
2023-02-11T18:42:38.073Z,7.30
2023-02-11T18:45:09.810Z,7.40
2023-02-11T18:47:38.002Z,7.40
2023-02-11T18:50:06.543Z,7.40
2023-02-11T18:52:34.598Z,7.30
2023-02-11T18:55:01.401Z,7.30
2023-02-11T18:57:28.673Z,7.30
2023-02-11T18:59:55.554Z,7.30
2023-02-11T19:02:22.450Z,7.20
2023-02-11T19:04:49.396Z,7.20
2023-02-11T19:07:16.290Z,7.10
2023-02-11T19:09:43.208Z,7.10
2023-02-11T19:12:10.402Z,7.10
2023-02-11T19:14:37.311Z,7.30
2023-02-11T19:17:07.011Z,7.20
2023-02-11T19:19:35.349Z,7.10
2023-02-11T19:22:10.423Z,7.00
2023-02-11T19:24:38.078Z,7.10
2023-02-11T19:27:05.461Z,7.00
2023-02-11T19:29:35.294Z,6.90
2023-02-11T19:32:04.459Z,6.80
2023-02-11T19:34:31.729Z,6.80
2023-02-11T19:37:00.861Z,6.70
2023-02-11T19:39:27.824Z,6.60
2023-02-11T19:41:54.780Z,6.40
2023-02-11T19:44:21.651Z,6.40
2023-02-11T19:46:50.284Z,6.30
2023-02-11T19:49:22.801Z,6.20
2023-02-11T19:51:50.852Z,6.10
2023-02-11T19:54:17.826Z,6.10
2023-02-11T19:56:47.396Z,6.10
2023-02-11T20:01:53.737Z,6.00
2023-02-11T20:04:20.738Z,6.00
2023-02-11T20:06:50.401Z,6.00
2023-02-11T20:09:17.336Z,5.90
2023-02-11T20:11:44.803Z,5.80
2023-02-11T20:14:15.545Z,5.70
2023-02-11T20:16:49.611Z,5.60
2023-02-11T20:19:19.401Z,5.60
2023-02-11T20:21:47.970Z,5.50
2023-02-11T20:24:16.032Z,5.50
2023-02-11T20:26:42.966Z,5.40
2023-02-11T20:29:10.265Z,5.40
2023-02-11T20:31:37.550Z,5.50
2023-02-11T20:34:04.818Z,5.50
2023-02-11T20:36:35.694Z,5.60
2023-02-11T20:39:05.123Z,5.50
2023-02-11T20:41:35.017Z,5.50
2023-02-11T20:44:05.507Z,5.50
2023-02-11T20:46:33.935Z,5.50
2023-02-11T20:49:01.920Z,5.50
2023-02-11T20:51:34.169Z,5.50
2023-02-11T20:54:06.104Z,5.50
2023-02-11T20:56:41.818Z,5.50
2023-02-11T20:59:12.580Z,5.50
2023-02-11T21:01:42.310Z,5.50
2023-02-11T21:04:18.264Z,5.50
2023-02-11T21:06:54.347Z,5.50
2023-02-11T21:09:24.305Z,5.50
2023-02-11T21:11:52.854Z,5.50
2023-02-11T21:14:20.876Z,5.50
2023-02-11T21:16:48.789Z,5.40
2023-02-11T21:19:16.239Z,5.40
2023-02-11T21:21:46.763Z,5.40
2023-02-11T21:24:16.549Z,5.50
2023-02-11T21:26:44.092Z,5.50
2023-02-11T21:29:13.712Z,5.50
2023-02-11T21:31:40.887Z,5.50
2023-02-11T21:34:08.173Z,5.60
2023-02-11T21:36:35.384Z,5.60
2023-02-11T21:39:04.107Z,5.60
2023-02-11T21:41:31.192Z,5.50
2023-02-11T21:43:58.542Z,5.60
2023-02-11T21:46:26.173Z,5.50
2023-02-11T21:48:53.540Z,5.60
2023-02-11T21:51:23.342Z,5.50
2023-02-11T21:53:55.245Z,5.50
2023-02-11T21:56:23.378Z,5.60
2023-02-11T21:58:53.475Z,5.50
2023-02-11T22:01:29.450Z,5.50
2023-02-11T22:03:57.833Z,5.50
2023-02-11T22:06:27.287Z,5.50
2023-02-11T22:08:55.093Z,5.50
2023-02-11T22:11:22.222Z,5.50
2023-02-11T22:13:53.873Z,5.50
2023-02-11T22:16:21.173Z,5.60
2023-02-11T22:18:54.497Z,5.60
2023-02-11T22:21:23.307Z,5.60
2023-02-11T22:23:51.634Z,5.60
2023-02-11T22:26:20.974Z,5.60
2023-02-11T22:28:55.025Z,5.60
2023-02-11T22:31:25.732Z,5.60
2023-02-11T22:33:52.753Z,5.60
2023-02-11T22:36:28.826Z,5.60
2023-02-11T22:38:55.998Z,5.60
2023-02-11T22:41:23.583Z,5.60
2023-02-11T22:43:50.490Z,5.60
2023-02-11T22:46:19.703Z,5.60
2023-02-11T22:48:47.701Z,5.60
2023-02-11T22:51:17.956Z,5.60
2023-02-11T22:53:48.603Z,5.60
2023-02-11T22:56:16.023Z,5.60
2023-02-11T22:58:43.186Z,5.70
2023-02-11T23:01:10.572Z,5.70
2023-02-11T23:03:37.602Z,5.70
2023-02-11T23:06:04.740Z,5.70
2023-02-11T23:08:32.656Z,5.70
2023-02-11T23:11:32.131Z,5.70
2023-02-11T23:13:59.424Z,5.70
2023-02-11T23:16:31.225Z,5.60
2023-02-11T23:19:08.498Z,5.60
2023-02-11T23:21:38.250Z,5.70
2023-02-11T23:24:08.574Z,5.70
2023-02-11T23:26:38.675Z,5.70
2023-02-11T23:29:06.534Z,5.70
2023-02-11T23:31:37.472Z,5.70
2023-02-11T23:34:04.816Z,5.70
2023-02-11T23:36:32.302Z,5.70
2023-02-11T23:39:00.019Z,5.70
2023-02-11T23:41:26.893Z,5.70
2023-02-11T23:43:56.112Z,5.70
2023-02-11T23:46:23.928Z,5.80
2023-02-11T23:48:51.933Z,5.80
2023-02-11T23:51:19.042Z,5.80
2023-02-11T23:53:52.624Z,5.80
2023-02-11T23:56:24.861Z,5.80
2023-02-11T23:58:54.350Z,5.80
